aviador You're here:

GMMI Decoded Metar

ESSADOUIRA in MOROCCO
Report Time2018-02-22 08:00:00
UTC Time2018-02-22 08:36:24
Flight Rules vfr VFR
Wind050° at 04 kt
W.Decomp.*RWY 34: 1.2 kt HW 3.8 kt RCW
W.Rank050° ranks 7
Current wind is below 050° avg. (8.8)
Visibility8000 m
Phenomena:N/A
Clouds:N/A
Expected CloudBase > 400 ft AGL from Temp-Dew spread
CeilingNone
Temp09°C (ISA -6)
Dew Point08°C (94% RH)
AAT7.1°C
QNH1009 hPa
Density Alt-407 ft
Elevation26 ft
Report Wrong Elevation
Raw Report
METAR GMMI 220800Z 05004KT 8000 NSC 09/08 Q1009 NOSIG=

Extra information for GMMI:More info

Metar Taf Metar & Taf Last 4 Metars F.Rules Stats Wind Profile Meteogram Temp Stats Airport Information Weather charts Add Link Nearby VenuesMetar ALERT Operation Metar Decoded Social comments